Time;durP1;ratioP1;P1;durP2;ratioP2;P2;SDS_P1;SDS_P2;PMS_P1;PMS_P2;Temp;Humidity;BMP_temperature;BMP_pressure;BME280_temperature;BME280_humidity;BME280_pressure;Samples;Min_cycle;Max_cycle;Signal;HPM_P1;HPM_P2
2021/12/20 00:00:59;;;;;;;11.52;3.17;;;14.80;98.70;;;;;;5114169;28;20075;-66
2021/12/20 00:03:25;;;;;;;12.57;3.30;;;15.00;99.90;;;;;;5118449;27;20043;-66
2021/12/20 00:05:51;;;;;;;16.08;4.57;;;15.00;99.90;;;;;;5117762;28;20043;-66
2021/12/20 00:08:17;;;;;;;11.20;2.75;;;;;;;;;;5118233;27;20097;-66
2021/12/20 00:10:43;;;;;;;15.10;3.13;;;14.90;99.90;;;;;;5117214;27;20544;-61
2021/12/20 00:13:09;;;;;;;13.38;3.25;;;15.10;99.90;;;;;;5123964;27;20576;-61
2021/12/20 00:15:35;;;;;;;12.80;2.92;;;;;;;;;;5115314;28;20048;-61
2021/12/20 00:18:01;;;;;;;11.93;2.83;;;14.90;99.90;;;;;;5117265;28;20040;-61
2021/12/20 00:20:27;;;;;;;16.38;4.05;;;14.70;98.60;;;;;;5116884;28;20092;-60
2021/12/20 00:22:52;;;;;;;15.77;3.92;;;14.90;99.70;;;;;;5117132;28;20077;-60
2021/12/20 00:25:18;;;;;;;17.83;2.72;;;14.70;99.60;;;;;;5116976;28;20032;-61
2021/12/20 00:27:44;;;;;;;14.07;2.85;;;;;;;;;;5116350;28;20040;-61
2021/12/20 00:30:10;;;;;;;13.93;3.10;;;14.70;99.40;;;;;;5116736;28;20044;-60
2021/12/20 00:32:37;;;;;;;10.57;3.42;;;14.60;99.30;;;;;;5116722;27;20055;-60
2021/12/20 00:35:03;;;;;;;13.18;3.00;;;14.30;99.20;;;;;;5116929;28;20058;-60
2021/12/20 00:40:23;;;;;;;12.73;2.67;;;;;;;;;;5116524;28;20089;-62
2021/12/20 00:42:59;;;;;;;13.70;3.00;;;14.60;98.00;;;;;;5136792;27;20441;-61
2021/12/20 00:45:27;;;;;;;16.77;3.42;;;14.30;99.10;;;;;;5137292;27;20039;-61
2021/12/20 00:47:53;;;;;;;8.20;2.47;;;14.60;97.90;;;;;;5131459;27;20047;-60
2021/12/20 00:50:19;;;;;;;13.82;3.65;;;14.70;99.20;;;;;;5128651;27;20039;-61
2021/12/20 00:52:45;;;;;;;12.73;2.95;;;14.70;98.00;;;;;;5131310;27;20039;-60
2021/12/20 00:55:12;;;;;;;13.20;3.05;;;14.40;99.00;;;;;;5136965;27;20053;-60
2021/12/20 00:57:38;;;;;;;11.52;3.10;;;14.30;99.00;;;;;;5119062;27;20147;-60
2021/12/20 01:00:06;;;;;;;7.55;2.33;;;14.40;97.70;;;;;;5116177;28;20079;-61
2021/12/20 01:02:31;;;;;;;10.88;2.50;;;14.70;97.60;;;;;;5122860;27;20046;-62
2021/12/20 01:04:57;;;;;;;11.27;3.75;;;14.50;97.80;;;;;;5136931;27;20043;-61
2021/12/20 01:07:23;;;;;;;9.77;2.47;;;14.50;97.80;;;;;;5136925;27;20400;-61
2021/12/20 01:09:49;;;;;;;9.88;2.83;;;14.60;99.00;;;;;;5136501;27;20047;-60
2021/12/20 01:12:19;;;;;;;11.85;2.80;;;14.50;98.90;;;;;;5119854;27;20058;-61
2021/12/20 01:14:45;;;;;;;10.73;2.85;;;;;;;;;;5115713;28;20079;-61
2021/12/20 01:17:11;;;;;;;10.60;2.83;;;14.40;97.80;;;;;;5116160;28;20134;-62
2021/12/20 01:19:37;;;;;;;8.20;2.15;;;14.50;97.60;;;;;;5115743;28;20485;-60
2021/12/20 01:22:03;;;;;;;10.32;2.55;;;14.00;98.60;;;;;;5121180;27;20119;-61
2021/12/20 01:24:28;;;;;;;10.05;2.17;;;14.20;97.40;;;;;;5134441;27;20042;-61
2021/12/20 01:26:55;;;;;;;12.95;2.40;;;;;;;;;;5135980;27;20119;-61
2021/12/20 01:29:21;;;;;;;9.98;2.35;;;14.30;97.50;;;;;;5136178;27;20051;-61
2021/12/20 01:31:46;;;;;;;12.32;2.53;;;14.40;97.50;;;;;;5136451;27;20114;-60
2021/12/20 01:34:12;;;;;;;9.93;2.55;;;14.50;98.70;;;;;;5134637;27;20459;-61
2021/12/20 01:36:38;;;;;;;11.75;2.55;;;;;;;;;;5131841;27;20388;-60
2021/12/20 01:39:04;;;;;;;10.73;2.60;;;14.40;98.60;;;;;;5116033;28;20047;-61
2021/12/20 01:41:30;;;;;;;14.05;3.08;;;14.20;97.30;;;;;;5097171;28;20047;-60
2021/12/20 01:43:56;;;;;;;11.10;2.33;;;14.50;97.40;;;;;;5115589;28;20096;-60
2021/12/20 01:46:23;;;;;;;11.88;2.40;;;14.20;98.50;;;;;;5117382;27;20424;-61
2021/12/20 01:48:49;;;;;;;9.98;2.83;;;14.40;97.30;;;;;;5115541;28;20044;-61
2021/12/20 01:51:33;;;;;;;10.48;2.35;;;14.10;98.50;;;;;;5115476;28;20420;-60
2021/12/20 01:53:58;;;;;;;8.98;2.53;;;14.10;98.50;;;;;;5114962;28;20046;-61
2021/12/20 01:56:24;;;;;;;11.55;2.88;;;14.10;98.40;;;;;;5120087;27;20039;-60
2021/12/20 01:58:50;;;;;;;10.05;2.50;;;14.20;97.10;;;;;;5120414;27;20035;-66
2021/12/20 02:03:45;;;;;;;10.20;2.30;;;14.50;98.40;;;;;;5115909;27;20039;-60
2021/12/20 02:08:43;;;;;;;11.38;3.13;;;13.90;98.10;;;;;;5125625;27;20040;-61
2021/12/20 02:11:10;;;;;;;10.00;2.78;;;14.40;98.30;;;;;;5135329;27;20042;-60
2021/12/20 02:13:37;;;;;;;13.02;2.70;;;14.30;98.30;;;;;;5135606;27;20074;-61
2021/12/20 02:16:03;;;;;;;10.77;2.40;;;14.00;98.20;;;;;;5134796;27;20070;-61
2021/12/20 02:18:29;;;;;;;10.30;3.35;;;;;;;;;;5133203;27;20086;-61
2021/12/20 02:20:55;;;;;;;8.13;2.78;;;14.20;98.20;;;;;;5135457;27;20068;-61
2021/12/20 02:23:21;;;;;;;8.80;2.47;;;14.00;98.20;;;;;;5119287;27;20047;-60
2021/12/20 02:25:46;;;;;;;10.55;2.28;;;14.10;98.20;;;;;;5114334;28;20036;-60
2021/12/20 02:28:13;;;;;;;11.60;2.53;;;14.10;97.70;;;;;;5122856;27;20104;-62
2021/12/20 02:38:37;;;;;;;14.05;3.10;;;13.90;97.90;;;;;;5121482;27;20039;-61
2021/12/20 02:41:07;;;;;;;9.30;2.58;;;;;;;;;;5135132;27;20039;-60
2021/12/20 02:43:38;;;;;;;11.43;2.97;;;14.00;96.70;;;;;;5134797;27;20092;-60
2021/12/20 02:46:08;;;;;;;8.43;2.30;;;13.90;97.90;;;;;;5116393;27;20047;-60
2021/12/20 02:48:34;;;;;;;9.50;2.60;;;14.10;98.00;;;;;;5133405;27;20071;-60
2021/12/20 02:50:59;;;;;;;10.80;2.72;;;13.70;97.80;;;;;;5133512;27;20066;-61
2021/12/20 02:53:25;;;;;;;13.30;3.33;;;13.90;97.90;;;;;;5113938;28;20039;-60
2021/12/20 02:55:51;;;;;;;13.57;3.03;;;;;;;;;;5113852;28;20075;-63
2021/12/20 02:58:17;;;;;;;12.27;2.67;;;14.00;97.90;;;;;;5134467;27;20050;-61
2021/12/20 03:00:43;;;;;;;10.60;2.53;;;14.10;98.00;;;;;;5132836;27;20047;-60
2021/12/20 03:03:09;;;;;;;13.23;3.28;;;13.80;97.90;;;;;;5135335;27;20040;-60
2021/12/20 03:05:35;;;;;;;13.23;2.63;;;14.00;97.90;;;;;;5119385;27;20047;-65
2021/12/20 03:08:02;;;;;;;13.95;2.40;;;14.10;97.90;;;;;;5113951;28;20099;-65
2021/12/20 03:10:29;;;;;;;13.77;2.63;;;14.00;97.90;;;;;;5115260;27;20039;-60
2021/12/20 03:12:56;;;;;;;14.07;2.67;;;14.30;98.00;;;;;;5095406;28;20058;-61
2021/12/20 03:15:25;;;;;;;12.63;2.60;;;13.90;97.90;;;;;;5114054;28;20039;-61
2021/12/20 03:17:53;;;;;;;14.38;2.88;;;13.90;97.80;;;;;;5114106;28;20111;-60
2021/12/20 03:20:20;;;;;;;9.52;2.10;;;13.80;96.30;;;;;;5127978;28;20051;-64
2021/12/20 03:22:46;;;;;;;12.27;2.45;;;14.00;97.80;;;;;;5096710;28;20043;-61
2021/12/20 03:25:12;;;;;;;9.13;2.35;;;14.30;97.90;;;;;;5113909;28;20054;-60
2021/12/20 03:27:37;;;;;;;10.95;2.17;;;14.00;96.60;;;;;;5128274;28;20095;-61
2021/12/20 03:30:05;;;;;;;10.07;2.28;;;13.80;97.70;;;;;;5129665;28;20040;-60
2021/12/20 03:32:31;;;;;;;10.18;2.08;;;13.90;96.40;;;;;;5124613;28;20485;-60
2021/12/20 03:34:56;;;;;;;9.40;2.10;;;14.00;97.70;;;;;;5134351;27;20123;-60
2021/12/20 03:37:22;;;;;;;8.38;2.10;;;13.80;96.40;;;;;;5130568;27;20390;-61
2021/12/20 03:39:48;;;;;;;7.85;2.22;;;13.60;96.40;;;;;;5118077;28;20039;-61
2021/12/20 03:42:14;;;;;;;11.48;2.70;;;13.60;97.60;;;;;;5121373;27;20035;-60
2021/12/20 03:44:44;;;;;;;8.50;2.20;;;13.80;97.60;;;;;;5138554;27;20396;-60
2021/12/20 03:47:10;;;;;;;9.80;2.65;;;14.00;97.70;;;;;;5138446;27;20039;-61
2021/12/20 03:49:36;;;;;;;11.60;2.67;;;13.80;96.40;;;;;;5120090;27;20054;-60
2021/12/20 03:52:04;;;;;;;10.10;2.63;;;;;;;;;;5132405;27;20477;-60
2021/12/20 03:54:30;;;;;;;8.95;2.38;;;14.00;97.70;;;;;;5118627;27;20097;-61
2021/12/20 03:56:56;;;;;;;12.40;2.90;;;13.80;97.60;;;;;;5117677;28;20039;-61
2021/12/20 03:59:22;;;;;;;10.02;2.47;;;13.40;97.50;;;;;;5117649;28;20039;-61
2021/12/20 04:01:48;;;;;;;10.60;2.10;;;13.90;96.40;;;;;;5099186;28;20047;-61
2021/12/20 04:04:14;;;;;;;15.35;2.65;;;13.70;97.60;;;;;;5126252;27;20054;-61
2021/12/20 04:06:40;;;;;;;9.57;2.65;;;;;;;;;;5133355;27;20036;-60
2021/12/20 04:09:06;;;;;;;12.35;2.67;;;13.90;97.60;;;;;;5117523;28;20071;-62
2021/12/20 04:11:32;;;;;;;9.88;2.30;;;13.70;97.50;;;;;;5123100;27;20073;-61
2021/12/20 04:13:58;;;;;;;9.43;2.38;;;13.60;97.40;;;;;;5136025;27;20043;-61
2021/12/20 04:16:24;;;;;;;12.38;2.75;;;13.60;96.20;;;;;;5137577;27;20445;-61
2021/12/20 04:18:50;;;;;;;10.60;3.05;;;13.70;97.50;;;;;;5137861;27;20110;-61
2021/12/20 04:21:16;;;;;;;10.52;3.20;;;;;;;;;;5137830;27;20455;-60
2021/12/20 04:23:42;;;;;;;12.50;2.72;;;13.90;97.50;;;;;;5137647;27;20034;-60
2021/12/20 04:26:08;;;;;;;11.40;3.05;;;13.80;97.40;;;;;;5131005;27;20472;-62
2021/12/20 04:28:34;;;;;;;13.68;3.53;;;13.60;96.20;;;;;;5117167;28;20104;-60
2021/12/20 04:31:00;;;;;;;11.60;3.45;;;13.60;97.40;;;;;;5117063;28;20039;-60
2021/12/20 04:33:25;;;;;;;14.48;3.13;;;13.60;96.20;;;;;;5117050;28;20199;-61
2021/12/20 04:35:52;;;;;;;13.10;2.50;;;;;;;;;;5115131;28;20122;-60
2021/12/20 04:38:18;;;;;;;12.20;3.03;;;;;;;;;;5116951;28;20043;-61
2021/12/20 04:40:44;;;;;;;11.65;2.92;;;13.70;97.50;;;;;;5112654;28;20565;-60
2021/12/20 04:43:10;;;;;;;10.18;2.30;;;13.60;97.40;;;;;;5096138;28;20169;-61
2021/12/20 04:45:36;;;;;;;10.68;2.67;;;13.70;96.20;;;;;;5079468;28;20079;-60
2021/12/20 04:48:02;;;;;;;9.95;2.67;;;13.30;97.20;;;;;;5113671;28;20039;-61
2021/12/20 04:50:28;;;;;;;11.45;2.42;;;13.80;96.10;;;;;;5116715;28;20054;-61
2021/12/20 04:52:55;;;;;;;11.52;2.38;;;13.40;97.20;;;;;;5115769;28;20389;-61
2021/12/20 04:55:21;;;;;;;13.02;3.38;;;13.60;97.20;;;;;;5116403;28;20050;-60
2021/12/20 04:57:47;;;;;;;11.05;2.33;;;13.50;96.00;;;;;;5115047;28;20079;-61
2021/12/20 05:00:15;;;;;;;11.88;2.85;;;13.50;97.10;;;;;;5098541;28;20067;-60
2021/12/20 05:02:41;;;;;;;8.57;2.28;;;13.40;95.80;;;;;;5116204;28;20051;-61
2021/12/20 05:05:09;;;;;;;9.15;2.22;;;13.50;97.20;;;;;;5116441;28;20032;-60
2021/12/20 05:07:37;;;;;;;6.78;1.95;;;13.50;97.00;;;;;;5104226;28;20389;-61
2021/12/20 05:10:03;;;;;;;9.90;1.85;;;13.80;97.10;;;;;;5116382;28;20127;-60
2021/12/20 05:12:28;;;;;;;8.35;2.08;;;13.50;97.10;;;;;;5115953;28;20126;-61
2021/12/20 05:14:54;;;;;;;7.00;2.13;;;13.60;97.00;;;;;;5115819;28;20059;-60
2021/12/20 05:17:20;;;;;;;7.38;1.67;;;13.50;95.70;;;;;;5106442;28;20032;-61
2021/12/20 05:19:45;;;;;;;6.57;1.55;;;13.50;97.00;;;;;;5111382;28;20070;-60
2021/12/20 05:22:11;;;;;;;7.45;1.77;;;13.30;95.70;;;;;;5115795;28;20495;-60
2021/12/20 05:24:38;;;;;;;5.82;1.30;;;;;;;;;;5115906;28;20050;-60
2021/12/20 05:27:04;;;;;;;6.57;1.60;;;13.60;96.90;;;;;;5094146;28;20056;-60
2021/12/20 05:29:30;;;;;;;7.70;1.70;;;13.60;95.60;;;;;;5102990;28;20054;-61
2021/12/20 05:31:55;;;;;;;4.03;1.40;;;13.20;96.80;;;;;;5107484;28;20115;-60
2021/12/20 05:34:21;;;;;;;6.07;1.23;;;13.30;97.00;;;;;;5096333;28;20039;-60
2021/12/20 05:36:47;;;;;;;4.90;1.05;;;13.60;96.80;;;;;;5095436;28;20073;-61
2021/12/20 05:39:13;;;;;;;6.00;1.42;;;13.40;96.80;;;;;;5095294;28;20047;-61
2021/12/20 05:41:38;;;;;;;4.68;1.45;;;13.40;96.80;;;;;;5114980;28;20043;-60
2021/12/20 05:44:04;;;;;;;6.15;1.45;;;13.30;96.70;;;;;;5115686;28;20055;-61
2021/12/20 05:46:30;;;;;;;4.18;1.25;;;13.30;95.50;;;;;;5115318;28;20562;-60
2021/12/20 05:48:56;;;;;;;8.32;2.20;;;13.40;96.70;;;;;;5112225;28;20111;-62
2021/12/20 05:51:22;;;;;;;7.85;1.52;;;13.50;96.80;;;;;;5095930;28;20044;-61
2021/12/20 05:53:47;;;;;;;7.35;1.48;;;13.40;96.70;;;;;;5093322;28;20089;-61
2021/12/20 05:56:13;;;;;;;5.90;1.48;;;13.40;96.70;;;;;;5094599;28;20052;-60
2021/12/20 05:58:39;;;;;;;5.70;1.13;;;;;;;;;;5094365;28;20040;-61
2021/12/20 06:01:05;;;;;;;4.28;1.05;;;13.30;96.60;;;;;;5098850;28;20094;-60
2021/12/20 06:03:31;;;;;;;5.30;1.25;;;13.40;96.60;;;;;;5114810;28;20497;-60
2021/12/20 06:05:56;;;;;;;5.82;1.30;;;13.30;96.60;;;;;;5114927;28;20044;-61
2021/12/20 06:08:22;;;;;;;4.05;1.10;;;12.90;96.40;;;;;;5114811;28;20074;-61
2021/12/20 06:10:48;;;;;;;2.60;0.80;;;13.30;96.50;;;;;;5115174;28;20469;-60
2021/12/20 06:13:13;;;;;;;5.50;1.30;;;13.10;95.30;;;;;;5113386;28;20618;-60
2021/12/20 06:15:39;;;;;;;5.78;1.50;;;;;;;;;;5114965;28;20043;-60
2021/12/20 06:18:05;;;;;;;6.68;1.42;;;13.20;96.70;;;;;;5114683;28;20044;-61
2021/12/20 06:20:31;;;;;;;5.85;1.35;;;13.20;96.40;;;;;;5114681;28;20050;-60
2021/12/20 06:22:57;;;;;;;4.97;1.02;;;13.00;96.40;;;;;;5110490;28;20077;-60
2021/12/20 06:25:22;;;;;;;3.70;1.10;;;13.30;95.30;;;;;;5094509;28;20487;-60
2021/12/20 06:27:48;;;;;;;4.55;1.20;;;13.30;96.50;;;;;;5107995;28;20499;-60
2021/12/20 06:30:14;;;;;;;3.35;1.05;;;13.30;95.40;;;;;;5114494;28;20119;-60
2021/12/20 06:32:41;;;;;;;4.82;1.05;;;13.40;96.50;;;;;;5115810;27;20069;-61
2021/12/20 06:35:07;;;;;;;2.60;0.77;;;13.20;95.40;;;;;;5114691;28;20508;-60
2021/12/20 06:37:33;;;;;;;2.83;0.80;;;13.20;96.50;;;;;;5115383;27;20035;-61
2021/12/20 06:39:59;;;;;;;4.25;1.00;;;13.00;96.50;;;;;;5135437;27;20047;-61
2021/12/20 06:42:25;;;;;;;5.15;1.15;;;;;;;;;;5135099;27;20047;-61
2021/12/20 06:44:51;;;;;;;4.30;0.90;;;13.50;96.60;;;;;;5133151;27;20068;-60
2021/12/20 06:47:17;;;;;;;2.28;1.00;;;13.30;95.30;;;;;;5134713;27;20046;-61
2021/12/20 06:49:43;;;;;;;4.13;0.80;;;13.70;96.50;;;;;;5133156;27;20043;-60
2021/12/20 06:52:09;;;;;;;2.97;0.90;;;13.40;96.40;;;;;;5116286;27;20126;-60
2021/12/20 06:54:35;;;;;;;2.42;0.75;;;;;;;;;;5132806;27;20092;-60
2021/12/20 06:57:01;;;;;;;2.03;0.70;;;13.30;96.40;;;;;;5142627;27;20047;-66
2021/12/20 06:59:27;;;;;;;2.60;0.82;;;13.10;96.30;;;;;;5141769;27;20039;-65
2021/12/20 07:01:53;;;;;;;2.05;0.75;;;13.20;96.40;;;;;;5134805;27;20536;-61
2021/12/20 07:04:18;;;;;;;4.97;1.23;;;13.50;96.40;;;;;;5133458;27;20043;-60
2021/12/20 07:06:44;;;;;;;2.45;0.90;;;13.30;96.30;;;;;;5133063;27;20047;-60
2021/12/20 07:09:10;;;;;;;2.75;0.80;;;13.40;96.40;;;;;;5134392;27;20533;-60
2021/12/20 07:11:36;;;;;;;3.95;0.75;;;;;;;;;;5134246;27;20049;-60
2021/12/20 07:14:02;;;;;;;2.47;0.80;;;13.10;96.50;;;;;;5134357;27;20039;-60
2021/12/20 07:16:32;;;;;;;2.20;1.00;;;13.30;96.40;;;;;;5132889;28;20042;-60
2021/12/20 07:18:58;;;;;;;3.22;0.98;;;13.30;96.30;;;;;;5111767;28;20473;-60
2021/12/20 07:21:24;;;;;;;2.30;0.98;;;13.20;96.30;;;;;;5113937;28;20164;-60
2021/12/20 07:23:50;;;;;;;1.95;0.73;;;12.90;96.10;;;;;;5095601;28;20031;-60
2021/12/20 07:26:15;;;;;;;2.30;0.93;;;13.20;96.20;;;;;;5115322;27;20059;-62
2021/12/20 07:28:42;;;;;;;2.15;0.85;;;;;;;;;;5135053;28;20362;-66
2021/12/20 07:31:12;;;;;;;2.50;0.73;;;13.10;94.90;;;;;;5134182;28;20125;-64
2021/12/20 07:33:38;;;;;;;2.10;0.80;;;13.10;96.20;;;;;;5128595;28;20066;-66
2021/12/20 07:36:04;;;;;;;2.35;0.70;;;13.20;94.90;;;;;;5113529;28;20048;-64
2021/12/20 07:38:30;;;;;;;2.63;0.60;;;13.10;94.90;;;;;;5115002;28;20396;-66
2021/12/20 07:40:55;;;;;;;2.38;0.80;;;13.30;96.20;;;;;;5113884;28;20044;-66
2021/12/20 07:43:22;;;;;;;1.60;0.50;;;;;;;;;;5124128;27;20034;-65
2021/12/20 07:45:48;;;;;;;1.25;0.45;;;13.10;96.00;;;;;;5133658;27;20043;-64
2021/12/20 07:48:15;;;;;;;1.60;0.70;;;12.70;95.90;;;;;;5131787;28;20039;-63
2021/12/20 07:50:40;;;;;;;2.78;0.82;;;12.90;95.90;;;;;;5134363;28;20089;-60
2021/12/20 07:53:06;;;;;;;1.80;0.68;;;12.90;95.90;;;;;;5126110;28;20493;-60
2021/12/20 07:55:32;;;;;;;1.10;0.50;;;13.10;94.70;;;;;;5126737;28;20126;-60
2021/12/20 07:57:59;;;;;;;1.70;0.50;;;;;;;;;;5107820;28;20081;-65
2021/12/20 08:00:25;;;;;;;1.23;0.60;;;;;;;;;;5128702;28;20046;-60
2021/12/20 08:02:51;;;;;;;2.67;0.82;;;12.80;95.80;;;;;;5122851;28;20032;-66
2021/12/20 08:05:19;;;;;;;2.28;0.60;;;12.80;95.90;;;;;;5114792;28;20543;-60
2021/12/20 08:07:46;;;;;;;2.78;0.70;;;12.90;95.90;;;;;;5114871;28;20496;-60
2021/12/20 08:10:12;;;;;;;1.00;0.50;;;12.80;95.90;;;;;;5113034;28;20048;-59
2021/12/20 08:12:38;;;;;;;1.08;0.40;;;12.80;95.80;;;;;;5117440;28;20043;-60
2021/12/20 08:15:04;;;;;;;0.77;0.40;;;12.90;95.80;;;;;;5130347;28;20060;-60
2021/12/20 08:17:31;;;;;;;1.52;0.50;;;12.70;95.80;;;;;;5113249;28;20126;-60
2021/12/20 08:19:58;;;;;;;1.38;0.60;;;12.90;95.80;;;;;;5113168;28;20032;-61
2021/12/20 08:22:25;;;;;;;1.13;0.68;;;13.00;95.90;;;;;;5114450;28;20400;-66
2021/12/20 08:24:51;;;;;;;1.17;0.50;;;12.90;95.90;;;;;;5116585;28;20039;-61
2021/12/20 08:27:17;;;;;;;1.30;0.55;;;13.10;95.70;;;;;;5121631;27;20055;-60
2021/12/20 08:29:43;;;;;;;1.45;0.65;;;;;;;;;;5127111;27;20428;-61
2021/12/20 08:32:09;;;;;;;0.77;0.50;;;12.60;95.60;;;;;;5113819;27;20043;-64
2021/12/20 08:34:35;;;;;;;2.90;0.88;;;;;;;;;;5101137;27;20377;-60
2021/12/20 08:37:01;;;;;;;2.30;0.60;;;13.00;95.70;;;;;;5133626;27;20043;-60
2021/12/20 08:39:31;;;;;;;2.63;1.08;;;12.70;94.40;;;;;;5105409;28;20042;-59
2021/12/20 08:41:57;;;;;;;2.10;0.80;;;12.70;95.70;;;;;;5117631;27;20126;-61
2021/12/20 08:44:24;;;;;;;2.58;1.08;;;12.60;95.60;;;;;;5124508;27;20043;-60
2021/12/20 08:46:50;;;;;;;2.15;0.90;;;12.60;95.60;;;;;;5137315;27;20043;-60
2021/12/20 08:49:16;;;;;;;2.97;0.90;;;12.80;94.40;;;;;;5134111;27;20365;-60
2021/12/20 08:51:42;;;;;;;2.28;0.90;;;;;;;;;;5110472;28;20046;-61
2021/12/20 08:54:08;;;;;;;4.88;1.02;;;13.30;95.80;;;;;;5129262;27;20046;-61
2021/12/20 08:56:34;;;;;;;2.15;0.77;;;13.20;95.70;;;;;;5135669;27;20047;-60
2021/12/20 08:59:00;;;;;;;0.77;0.52;;;;;;;;;;5128314;27;20444;-61
2021/12/20 09:01:26;;;;;;;4.45;0.77;;;13.10;95.40;;;;;;5123264;27;20043;-67
2021/12/20 09:03:52;;;;;;;3.58;1.02;;;13.40;94.10;;;;;;5128973;27;20092;-60
2021/12/20 09:06:22;;;;;;;3.38;1.05;;;;;;;;;;5117865;27;20478;-62
2021/12/20 09:08:48;;;;;;;4.35;0.90;;;;;;;;;;5116585;27;20044;-65
2021/12/20 09:11:14;;;;;;;4.55;1.10;;;;;;;;;;5135132;27;20435;-69
2021/12/20 09:13:41;;;;;;;5.03;0.90;;;13.10;95.10;;;;;;5140493;27;20042;-68
2021/12/20 09:16:07;;;;;;;4.03;0.93;;;13.00;94.10;;;;;;5137165;27;20043;-62
2021/12/20 09:18:33;;;;;;;3.13;1.30;;;13.10;95.10;;;;;;5134995;27;20059;-63
2021/12/20 09:20:59;;;;;;;3.28;0.90;;;13.30;95.00;;;;;;5146556;27;20178;-62
2021/12/20 09:23:29;;;;;;;2.85;0.85;;;;;;;;;;5139376;27;20032;-61
2021/12/20 09:25:55;;;;;;;2.33;0.75;;;;;;;;;;5136556;27;20099;-63
2021/12/20 09:28:21;;;;;;;2.20;0.80;;;13.00;94.80;;;;;;5131261;27;20047;-60
2021/12/20 09:30:46;;;;;;;3.85;1.02;;;13.00;93.30;;;;;;5130921;27;20179;-60
2021/12/20 09:33:13;;;;;;;3.33;0.88;;;;;;;;;;5124312;27;20510;-60
2021/12/20 09:35:39;;;;;;;1.77;0.57;;;12.90;94.70;;;;;;5127730;27;20122;-60
2021/12/20 09:38:08;;;;;;;2.75;0.95;;;13.00;94.70;;;;;;5108334;27;20114;-68
2021/12/20 09:40:38;;;;;;;2.08;0.80;;;;;;;;;;5132526;27;20039;-61
2021/12/20 09:43:12;;;;;;;2.63;0.90;;;13.00;93.00;;;;;;5123154;27;20396;-64
2021/12/20 09:45:39;;;;;;;4.63;0.98;;;;;;;;;;5125944;27;20039;-61
2021/12/20 09:48:05;;;;;;;3.35;1.02;;;;;;;;;;5128060;27;20038;-63
2021/12/20 09:50:32;;;;;;;3.35;0.80;;;;;;;;;;5119777;27;20043;-64
2021/12/20 09:53:04;;;;;;;4.85;1.67;;;;;;;;;;5122718;27;20035;-63
2021/12/20 09:55:30;;;;;;;6.65;1.95;;;13.00;94.50;;;;;;5133720;27;20046;-63
2021/12/20 09:57:56;;;;;;;5.45;2.50;;;13.10;94.70;;;;;;5135156;27;20035;-61
2021/12/20 10:00:22;;;;;;;6.38;3.63;;;13.00;94.50;;;;;;5135537;27;20050;-63
2021/12/20 10:02:48;;;;;;;9.48;4.75;;;13.10;94.50;;;;;;5135488;27;20118;-62
2021/12/20 10:05:15;;;;;;;9.00;5.65;;;13.10;94.40;;;;;;5118528;27;20496;-60
2021/12/20 10:07:41;;;;;;;12.52;6.40;;;13.10;94.40;;;;;;5115668;27;20036;-64
2021/12/20 10:10:09;;;;;;;10.02;6.65;;;13.00;93.00;;;;;;5135506;27;20545;-61
2021/12/20 10:12:36;;;;;;;11.90;7.40;;;;;;;;;;5133818;27;20042;-62
2021/12/20 10:15:10;;;;;;;11.52;6.90;;;;;;;;;;5131159;27;20036;-65
2021/12/20 10:17:52;;;;;;;9.98;6.35;;;;;;;;;;5131308;27;20078;-63
2021/12/20 10:20:23;;;;;;;9.48;5.15;;;13.20;93.10;;;;;;5131501;27;20122;-63
2021/12/20 10:22:50;;;;;;;8.60;4.80;;;13.30;94.40;;;;;;5128824;27;20030;-66
2021/12/20 10:25:21;;;;;;;7.22;4.20;;;13.10;92.50;;;;;;5130548;27;20039;-59
2021/12/20 10:27:47;;;;;;;7.13;4.10;;;13.30;94.40;;;;;;5128787;27;20430;-61
2021/12/20 10:30:27;;;;;;;5.55;3.33;;;;;;;;;;5120012;27;20054;-65
2021/12/20 10:32:53;;;;;;;5.55;3.05;;;13.30;94.40;;;;;;5128230;27;20078;-63
2021/12/20 10:35:25;;;;;;;6.30;3.10;;;13.60;92.50;;;;;;5137164;27;20505;-64
2021/12/20 10:37:55;;;;;;;6.38;3.17;;;13.10;94.20;;;;;;5134925;27;20039;-64
2021/12/20 10:40:21;;;;;;;7.75;3.80;;;;;;;;;;5137418;27;20106;-63
2021/12/20 10:42:49;;;;;;;6.97;3.28;;;;;;;;;;5142530;27;20042;-61
2021/12/20 10:45:19;;;;;;;9.02;3.42;;;13.50;92.50;;;;;;5140119;27;20062;-64
2021/12/20 10:47:45;;;;;;;12.55;3.47;;;13.90;93.60;;;;;;5121124;27;20042;-62
2021/12/20 10:50:30;;;;;;;8.77;3.90;;;;;;;;;;5117926;27;20503;-62
2021/12/20 10:53:13;;;;;;;10.98;3.90;;;13.80;92.60;;;;;;5101092;28;20040;-65
2021/12/20 10:55:40;;;;;;;;;;;14.00;92.60;;;;;;5111101;27;20050;-63
2021/12/20 10:58:20;;;;;;;7.88;4.15;;;;;;;;;;5103369;28;19926;-64
2021/12/20 11:01:06;;;;;;;6.28;3.53;;;13.80;92.40;;;;;;5097414;28;20047;-63
2021/12/20 11:03:37;;;;;;;9.10;3.63;;;;;;;;;;5086215;28;20052;-61
2021/12/20 11:06:26;;;;;;;7.25;3.40;;;14.00;92.40;;;;;;5100941;27;20575;-65
2021/12/20 11:09:09;;;;;;;8.10;3.90;;;;;;;;;;5129674;27;20034;-65
2021/12/20 11:11:36;;;;;;;;;;;14.10;92.20;;;;;;5130552;27;20132;-66
2021/12/20 11:14:02;;;;;;;9.05;3.50;;;;;;;;;;5131687;27;20287;-67
2021/12/20 11:16:31;;;;;;;6.95;3.63;;;14.20;91.50;;;;;;5127111;27;20102;-62
2021/12/20 11:19:16;;;;;;;9.85;3.88;;;;;;;;;;5126094;28;20043;-62
2021/12/20 11:22:05;;;;;;;7.38;3.42;;;;;;;;;;5131445;27;20035;-60
2021/12/20 11:24:51;;;;;;;8.02;3.55;;;;;;;;;;5026361;28;20100;-62
2021/12/20 11:27:25;;;;;;;9.68;3.35;;;14.50;91.70;;;;;;5008765;28;20045;-61
2021/12/20 11:29:53;;;;;;;7.85;2.92;;;;;;;;;;5008416;28;20045;-65
2021/12/20 11:32:20;;;;;;;8.88;3.15;;;;;;;;;;5010523;28;20041;-61
2021/12/20 11:34:46;;;;;;;8.88;2.90;;;;;;;;;;5020701;28;20056;-64
2021/12/20 11:37:16;;;;;;;9.50;2.83;;;;;;;;;;5003416;28;20089;-62
2021/12/20 11:39:43;;;;;;;10.82;3.38;;;;;;;;;;5025937;28;20121;-62
2021/12/20 11:42:12;;;;;;;8.43;2.85;;;;;;;;;;5021532;28;20050;-63
2021/12/20 11:44:38;;;;;;;9.88;2.88;;;;;;;;;;5015515;28;20052;-63
2021/12/20 11:47:08;;;;;;;6.32;2.72;;;;;;;;;;5019220;28;20045;-66
2021/12/20 11:49:34;;;;;;;11.65;3.20;;;;;;;;;;5000576;28;20050;-62
2021/12/20 11:52:14;;;;;;;13.32;3.10;;;;;;;;;;5021403;28;20140;-61
2021/12/20 11:54:42;;;;;;;11.77;2.75;;;;;;;;;;5013498;28;20565;-61
2021/12/20 11:57:27;;;;;;;10.82;3.10;;;;;;;;;;5016906;28;20431;-65
2021/12/20 11:59:53;;;;;;;15.63;2.60;;;;;;;;;;5023032;28;20049;-65
2021/12/20 12:02:20;;;;;;;10.20;3.17;;;;;;;;;;5093357;27;20051;-62
2021/12/20 12:04:55;;;;;;;13.25;2.35;;;;;;;;;;5122898;27;20085;-66
2021/12/20 12:07:26;;;;;;;7.72;2.42;;;15.10;92.00;;;;;;5123832;27;20122;-64
2021/12/20 12:10:04;;;;;;;10.07;2.60;;;;;;;;;;5127233;27;20362;-63
2021/12/20 12:12:31;;;;;;;18.60;2.97;;;;;;;;;;5121363;27;20035;-62
2021/12/20 12:15:05;;;;;;;13.55;2.90;;;;;;;;;;5124163;27;20039;-61
2021/12/20 12:17:50;;;;;;;10.52;2.50;;;;;;;;;;5123052;27;20463;-61
2021/12/20 12:20:37;;;;;;;14.20;2.67;;;15.20;91.70;;;;;;5124474;27;20040;-62
2021/12/20 12:23:32;;;;;;;13.10;2.60;;;;;;;;;;5129136;27;20062;-62
2021/12/20 12:25:59;;;;;;;8.75;2.85;;;;;;;;;;5018383;28;20061;-66
2021/12/20 12:28:26;;;;;;;11.75;2.55;;;;;;;;;;5024785;28;20056;-61
2021/12/20 12:30:56;;;;;;;11.48;2.45;;;;;;;;;;5031403;28;20057;-61
2021/12/20 12:33:22;;;;;;;15.68;2.78;;;;;;;;;;5031661;28;20041;-61
2021/12/20 12:35:51;;;;;;;13.02;2.45;;;;;;;;;;5031532;28;20061;-61
2021/12/20 12:38:36;;;;;;;10.93;2.40;;;14.90;91.40;;;;;;5032050;28;20052;-65
2021/12/20 12:41:08;;;;;;;9.93;2.53;;;;;;;;;;5036808;28;20044;-63
2021/12/20 12:43:53;;;;;;;10.85;2.63;;;;;;;;;;5050962;28;20175;-66
2021/12/20 12:46:40;;;;;;;10.13;2.45;;;14.70;91.30;;;;;;5051367;28;20457;-62
2021/12/20 12:49:36;;;;;;;9.25;2.25;;;14.60;91.70;;;;;;5051226;28;20067;-65
2021/12/20 12:52:17;;;;;;;10.50;2.80;;;14.70;91.10;;;;;;4989414;28;20050;-62
2021/12/20 12:54:43;;;;;;;9.40;2.35;;;;;;;;;;4991600;28;20068;-62
2021/12/20 12:57:09;;;;;;;6.50;2.30;;;;;;;;;;4991785;28;20046;-61
2021/12/20 12:59:38;;;;;;;9.38;2.28;;;;;;;;;;4970188;28;20051;-65
2021/12/20 13:02:27;;;;;;;8.73;2.38;;;;;;;;;;4997456;28;20560;-64
2021/12/20 13:04:57;;;;;;;9.07;2.53;;;14.70;90.10;;;;;;5040687;28;20095;-66
2021/12/20 13:07:30;;;;;;;9.02;2.53;;;14.70;91.40;;;;;;5048997;28;20057;-61
2021/12/20 13:09:58;;;;;;;6.50;1.90;;;14.30;90.40;;;;;;5050441;28;20514;-61
2021/12/20 13:12:33;;;;;;;8.50;1.90;;;;;;;;;;5049855;28;20041;-61
2021/12/20 13:15:10;;;;;;;11.07;1.98;;;14.50;90.20;;;;;;5040353;28;20053;-63
2021/12/20 13:17:47;;;;;;;8.32;2.00;;;14.00;89.90;;;;;;5049616;28;20759;-61
2021/12/20 13:20:23;;;;;;;9.55;2.00;;;;;;;;;;5048775;28;20474;-62
2021/12/20 13:23:16;;;;;;;8.10;2.08;;;13.70;89.20;;;;;;5049516;28;20114;-61
2021/12/20 13:25:42;;;;;;;7.03;1.75;;;;;;;;;;5033140;28;20403;-61
2021/12/20 13:28:10;;;;;;;5.88;1.60;;;13.60;89.50;;;;;;5063878;28;20446;-62
2021/12/20 13:30:38;;;;;;;5.63;1.88;;;;;;;;;;5086234;28;20050;-60
2021/12/20 13:33:04;;;;;;;5.35;1.33;;;;;;;;;;5105537;28;20142;-62